sensor_id;sensor_type;location;lat;lon;timestamp;P1;durP1;ratioP1;P2;durP2;ratioP2
38787;SDS011;24536;45.488;12.238;2023-04-25T00:02:17;3.47;;;2.15;;
38787;SDS011;24536;45.488;12.238;2023-04-25T00:04:44;2.67;;;1.48;;
38787;SDS011;24536;45.488;12.238;2023-04-25T00:07:10;1.90;;;1.27;;
38787;SDS011;24536;45.488;12.238;2023-04-25T00:09:36;1.30;;;1.17;;
38787;SDS011;24536;45.488;12.238;2023-04-25T00:12:02;2.22;;;1.35;;
38787;SDS011;24536;45.488;12.238;2023-04-25T00:14:28;1.33;;;1.10;;
38787;SDS011;24536;45.488;12.238;2023-04-25T00:16:54;1.63;;;0.98;;
38787;SDS011;24536;45.488;12.238;2023-04-25T00:19:21;1.45;;;1.35;;
38787;SDS011;24536;45.488;12.238;2023-04-25T00:21:47;1.70;;;1.15;;
38787;SDS011;24536;45.488;12.238;2023-04-25T00:24:13;1.30;;;0.90;;
38787;SDS011;24536;45.488;12.238;2023-04-25T00:26:38;1.67;;;1.25;;
38787;SDS011;24536;45.488;12.238;2023-04-25T00:29:04;1.88;;;1.25;;
38787;SDS011;24536;45.488;12.238;2023-04-25T00:31:30;1.35;;;1.25;;
38787;SDS011;24536;45.488;12.238;2023-04-25T00:33:55;1.58;;;1.08;;
38787;SDS011;24536;45.488;12.238;2023-04-25T00:36:21;1.77;;;1.40;;
38787;SDS011;24536;45.488;12.238;2023-04-25T00:38:47;2.10;;;1.30;;
38787;SDS011;24536;45.488;12.238;2023-04-25T00:41:13;1.85;;;1.10;;
38787;SDS011;24536;45.488;12.238;2023-04-25T00:43:38;1.38;;;0.95;;
38787;SDS011;24536;45.488;12.238;2023-04-25T00:46:05;1.30;;;1.08;;
38787;SDS011;24536;45.488;12.238;2023-04-25T00:48:30;1.73;;;1.00;;
38787;SDS011;24536;45.488;12.238;2023-04-25T00:50:57;2.03;;;1.17;;
38787;SDS011;24536;45.488;12.238;2023-04-25T00:53:24;1.52;;;1.33;;
38787;SDS011;24536;45.488;12.238;2023-04-25T00:55:51;2.15;;;1.17;;
38787;SDS011;24536;45.488;12.238;2023-04-25T00:58:17;2.33;;;1.25;;
38787;SDS011;24536;45.488;12.238;2023-04-25T01:00:44;1.73;;;1.45;;
38787;SDS011;24536;45.488;12.238;2023-04-25T01:03:11;1.52;;;1.23;;
38787;SDS011;24536;45.488;12.238;2023-04-25T01:05:47;1.50;;;1.30;;
38787;SDS011;24536;45.488;12.238;2023-04-25T01:08:13;2.50;;;1.42;;
38787;SDS011;24536;45.488;12.238;2023-04-25T01:10:39;1.85;;;1.27;;
38787;SDS011;24536;45.488;12.238;2023-04-25T01:13:06;1.70;;;1.30;;
38787;SDS011;24536;45.488;12.238;2023-04-25T01:15:32;1.10;;;1.00;;
38787;SDS011;24536;45.488;12.238;2023-04-25T01:18:00;1.95;;;1.40;;
38787;SDS011;24536;45.488;12.238;2023-04-25T01:20:27;1.73;;;1.50;;
38787;SDS011;24536;45.488;12.238;2023-04-25T01:22:54;1.60;;;1.17;;
38787;SDS011;24536;45.488;12.238;2023-04-25T01:25:21;2.03;;;1.35;;
38787;SDS011;24536;45.488;12.238;2023-04-25T01:27:48;1.33;;;1.10;;
38787;SDS011;24536;45.488;12.238;2023-04-25T01:30:14;1.67;;;1.48;;
38787;SDS011;24536;45.488;12.238;2023-04-25T01:32:41;2.08;;;1.42;;
38787;SDS011;24536;45.488;12.238;2023-04-25T01:35:09;1.80;;;1.45;;
38787;SDS011;24536;45.488;12.238;2023-04-25T01:37:37;1.58;;;1.30;;
38787;SDS011;24536;45.488;12.238;2023-04-25T01:40:03;1.75;;;1.55;;
38787;SDS011;24536;45.488;12.238;2023-04-25T01:42:31;1.90;;;1.48;;
38787;SDS011;24536;45.488;12.238;2023-04-25T01:44:57;1.92;;;1.50;;
38787;SDS011;24536;45.488;12.238;2023-04-25T01:47:23;2.47;;;2.03;;
38787;SDS011;24536;45.488;12.238;2023-04-25T01:49:48;2.17;;;1.92;;
38787;SDS011;24536;45.488;12.238;2023-04-25T01:52:14;3.05;;;1.77;;
38787;SDS011;24536;45.488;12.238;2023-04-25T01:54:40;2.00;;;1.80;;
38787;SDS011;24536;45.488;12.238;2023-04-25T01:57:09;4.57;;;2.38;;
38787;SDS011;24536;45.488;12.238;2023-04-25T01:59:35;3.60;;;2.75;;
38787;SDS011;24536;45.488;12.238;2023-04-25T02:02:01;5.10;;;3.60;;
38787;SDS011;24536;45.488;12.238;2023-04-25T02:04:29;3.53;;;3.13;;
38787;SDS011;24536;45.488;12.238;2023-04-25T02:06:55;3.33;;;2.95;;
38787;SDS011;24536;45.488;12.238;2023-04-25T02:09:21;4.13;;;3.22;;
38787;SDS011;24536;45.488;12.238;2023-04-25T02:11:47;4.15;;;3.10;;
38787;SDS011;24536;45.488;12.238;2023-04-25T02:14:12;3.90;;;2.90;;
38787;SDS011;24536;45.488;12.238;2023-04-25T02:16:38;3.47;;;2.90;;
38787;SDS011;24536;45.488;12.238;2023-04-25T02:19:04;3.72;;;2.75;;
38787;SDS011;24536;45.488;12.238;2023-04-25T02:21:31;2.85;;;2.30;;
38787;SDS011;24536;45.488;12.238;2023-04-25T02:23:57;2.88;;;2.15;;
38787;SDS011;24536;45.488;12.238;2023-04-25T02:26:23;2.47;;;2.28;;
38787;SDS011;24536;45.488;12.238;2023-04-25T02:28:49;2.90;;;2.05;;
38787;SDS011;24536;45.488;12.238;2023-04-25T02:31:16;3.28;;;2.00;;
38787;SDS011;24536;45.488;12.238;2023-04-25T02:33:41;2.80;;;1.75;;
38787;SDS011;24536;45.488;12.238;2023-04-25T02:36:08;3.80;;;1.75;;
38787;SDS011;24536;45.488;12.238;2023-04-25T02:38:34;2.03;;;1.63;;
38787;SDS011;24536;45.488;12.238;2023-04-25T02:41:00;2.85;;;2.05;;
38787;SDS011;24536;45.488;12.238;2023-04-25T02:43:25;2.60;;;1.85;;
38787;SDS011;24536;45.488;12.238;2023-04-25T02:45:51;4.05;;;1.70;;
38787;SDS011;24536;45.488;12.238;2023-04-25T02:48:16;3.50;;;1.98;;
38787;SDS011;24536;45.488;12.238;2023-04-25T02:50:42;2.00;;;1.75;;
38787;SDS011;24536;45.488;12.238;2023-04-25T02:53:08;2.47;;;1.88;;
38787;SDS011;24536;45.488;12.238;2023-04-25T02:55:34;1.52;;;1.33;;
38787;SDS011;24536;45.488;12.238;2023-04-25T02:57:59;1.90;;;1.65;;
38787;SDS011;24536;45.488;12.238;2023-04-25T03:00:25;1.92;;;1.77;;
38787;SDS011;24536;45.488;12.238;2023-04-25T03:02:51;3.08;;;2.28;;
38787;SDS011;24536;45.488;12.238;2023-04-25T03:05:17;1.95;;;1.73;;
38787;SDS011;24536;45.488;12.238;2023-04-25T03:07:43;2.28;;;1.77;;
38787;SDS011;24536;45.488;12.238;2023-04-25T03:10:09;2.13;;;1.85;;
38787;SDS011;24536;45.488;12.238;2023-04-25T03:12:36;3.22;;;1.75;;
38787;SDS011;24536;45.488;12.238;2023-04-25T03:15:02;2.25;;;2.05;;
38787;SDS011;24536;45.488;12.238;2023-04-25T03:17:28;3.65;;;1.98;;
38787;SDS011;24536;45.488;12.238;2023-04-25T03:19:54;3.45;;;2.20;;
38787;SDS011;24536;45.488;12.238;2023-04-25T03:22:20;2.70;;;1.90;;
38787;SDS011;24536;45.488;12.238;2023-04-25T03:24:46;2.80;;;2.17;;
38787;SDS011;24536;45.488;12.238;2023-04-25T03:27:12;2.53;;;2.10;;
38787;SDS011;24536;45.488;12.238;2023-04-25T03:29:38;2.65;;;2.10;;
38787;SDS011;24536;45.488;12.238;2023-04-25T03:32:05;2.40;;;2.20;;
38787;SDS011;24536;45.488;12.238;2023-04-25T03:34:31;3.55;;;2.88;;
38787;SDS011;24536;45.488;12.238;2023-04-25T03:36:56;4.80;;;2.70;;
38787;SDS011;24536;45.488;12.238;2023-04-25T03:39:22;3.15;;;2.42;;
38787;SDS011;24536;45.488;12.238;2023-04-25T03:41:48;3.10;;;2.47;;
38787;SDS011;24536;45.488;12.238;2023-04-25T03:44:13;3.67;;;2.80;;
38787;SDS011;24536;45.488;12.238;2023-04-25T03:46:39;3.75;;;2.60;;
38787;SDS011;24536;45.488;12.238;2023-04-25T03:49:05;4.32;;;2.75;;
38787;SDS011;24536;45.488;12.238;2023-04-25T03:51:31;3.47;;;2.70;;
38787;SDS011;24536;45.488;12.238;2023-04-25T03:53:57;4.00;;;2.90;;
38787;SDS011;24536;45.488;12.238;2023-04-25T03:56:23;4.30;;;2.88;;
38787;SDS011;24536;45.488;12.238;2023-04-25T03:58:48;4.15;;;2.88;;
38787;SDS011;24536;45.488;12.238;2023-04-25T04:01:14;3.13;;;2.67;;
38787;SDS011;24536;45.488;12.238;2023-04-25T04:03:40;3.42;;;2.50;;
38787;SDS011;24536;45.488;12.238;2023-04-25T04:06:06;3.33;;;2.42;;
38787;SDS011;24536;45.488;12.238;2023-04-25T04:08:33;3.67;;;2.75;;
38787;SDS011;24536;45.488;12.238;2023-04-25T04:10:58;5.28;;;2.70;;
38787;SDS011;24536;45.488;12.238;2023-04-25T04:13:28;3.30;;;2.33;;
38787;SDS011;24536;45.488;12.238;2023-04-25T04:15:54;3.35;;;2.72;;
38787;SDS011;24536;45.488;12.238;2023-04-25T04:18:21;2.92;;;2.38;;
38787;SDS011;24536;45.488;12.238;2023-04-25T04:20:47;3.85;;;2.17;;
38787;SDS011;24536;45.488;12.238;2023-04-25T04:23:13;2.15;;;1.95;;
38787;SDS011;24536;45.488;12.238;2023-04-25T04:25:48;2.65;;;1.75;;
38787;SDS011;24536;45.488;12.238;2023-04-25T04:28:14;3.72;;;2.60;;
38787;SDS011;24536;45.488;12.238;2023-04-25T04:30:41;3.38;;;2.63;;
38787;SDS011;24536;45.488;12.238;2023-04-25T04:33:07;4.07;;;2.83;;
38787;SDS011;24536;45.488;12.238;2023-04-25T04:35:34;3.97;;;3.17;;
38787;SDS011;24536;45.488;12.238;2023-04-25T04:37:59;4.93;;;3.00;;
38787;SDS011;24536;45.488;12.238;2023-04-25T04:40:25;4.15;;;3.15;;
38787;SDS011;24536;45.488;12.238;2023-04-25T04:42:51;3.78;;;2.83;;
38787;SDS011;24536;45.488;12.238;2023-04-25T04:45:18;4.40;;;3.38;;
38787;SDS011;24536;45.488;12.238;2023-04-25T04:47:44;4.75;;;3.20;;
38787;SDS011;24536;45.488;12.238;2023-04-25T04:50:10;3.42;;;2.95;;
38787;SDS011;24536;45.488;12.238;2023-04-25T04:52:36;3.72;;;2.83;;
38787;SDS011;24536;45.488;12.238;2023-04-25T04:55:05;5.00;;;2.85;;
38787;SDS011;24536;45.488;12.238;2023-04-25T04:57:32;5.32;;;4.03;;
38787;SDS011;24536;45.488;12.238;2023-04-25T04:59:58;4.72;;;3.78;;
38787;SDS011;24536;45.488;12.238;2023-04-25T05:02:24;4.18;;;3.58;;
38787;SDS011;24536;45.488;12.238;2023-04-25T05:04:51;5.47;;;3.80;;
38787;SDS011;24536;45.488;12.238;2023-04-25T05:07:17;5.50;;;3.70;;
38787;SDS011;24536;45.488;12.238;2023-04-25T05:09:43;3.95;;;3.15;;
38787;SDS011;24536;45.488;12.238;2023-04-25T05:12:09;5.03;;;3.70;;
38787;SDS011;24536;45.488;12.238;2023-04-25T05:14:35;4.85;;;3.58;;
38787;SDS011;24536;45.488;12.238;2023-04-25T05:17:00;7.40;;;4.63;;
38787;SDS011;24536;45.488;12.238;2023-04-25T05:19:29;5.70;;;3.33;;
38787;SDS011;24536;45.488;12.238;2023-04-25T05:21:55;3.67;;;3.05;;
38787;SDS011;24536;45.488;12.238;2023-04-25T05:24:21;6.45;;;3.53;;
38787;SDS011;24536;45.488;12.238;2023-04-25T05:26:46;5.75;;;3.90;;
38787;SDS011;24536;45.488;12.238;2023-04-25T05:29:12;5.68;;;4.50;;
38787;SDS011;24536;45.488;12.238;2023-04-25T05:31:38;4.45;;;3.38;;
38787;SDS011;24536;45.488;12.238;2023-04-25T05:34:03;4.30;;;3.55;;
38787;SDS011;24536;45.488;12.238;2023-04-25T05:36:29;4.95;;;4.10;;
38787;SDS011;24536;45.488;12.238;2023-04-25T05:38:57;3.83;;;3.42;;
38787;SDS011;24536;45.488;12.238;2023-04-25T05:41:23;6.10;;;3.63;;
38787;SDS011;24536;45.488;12.238;2023-04-25T05:43:49;4.05;;;3.45;;
38787;SDS011;24536;45.488;12.238;2023-04-25T05:46:15;4.25;;;3.38;;
38787;SDS011;24536;45.488;12.238;2023-04-25T05:48:42;4.00;;;3.38;;
38787;SDS011;24536;45.488;12.238;2023-04-25T05:51:08;5.28;;;3.67;;
38787;SDS011;24536;45.488;12.238;2023-04-25T05:53:34;4.63;;;2.97;;
38787;SDS011;24536;45.488;12.238;2023-04-25T05:56:00;5.93;;;3.45;;
38787;SDS011;24536;45.488;12.238;2023-04-25T05:58:26;5.93;;;3.50;;
38787;SDS011;24536;45.488;12.238;2023-04-25T06:00:52;3.85;;;3.10;;
38787;SDS011;24536;45.488;12.238;2023-04-25T06:03:18;5.57;;;3.08;;
38787;SDS011;24536;45.488;12.238;2023-04-25T06:05:43;4.38;;;3.38;;
38787;SDS011;24536;45.488;12.238;2023-04-25T06:08:09;4.57;;;3.60;;
38787;SDS011;24536;45.488;12.238;2023-04-25T06:10:36;5.10;;;3.30;;
38787;SDS011;24536;45.488;12.238;2023-04-25T06:13:02;3.80;;;3.15;;
38787;SDS011;24536;45.488;12.238;2023-04-25T06:15:29;4.05;;;3.10;;
38787;SDS011;24536;45.488;12.238;2023-04-25T06:17:55;3.65;;;2.60;;
38787;SDS011;24536;45.488;12.238;2023-04-25T06:20:21;3.47;;;2.65;;
38787;SDS011;24536;45.488;12.238;2023-04-25T06:22:49;5.55;;;3.13;;
38787;SDS011;24536;45.488;12.238;2023-04-25T06:25:16;5.68;;;3.00;;
38787;SDS011;24536;45.488;12.238;2023-04-25T06:27:42;2.30;;;2.08;;
38787;SDS011;24536;45.488;12.238;2023-04-25T06:30:08;3.92;;;2.65;;
38787;SDS011;24536;45.488;12.238;2023-04-25T06:32:34;2.95;;;2.53;;
38787;SDS011;24536;45.488;12.238;2023-04-25T06:35:00;3.58;;;2.60;;
38787;SDS011;24536;45.488;12.238;2023-04-25T06:37:26;4.68;;;2.88;;
38787;SDS011;24536;45.488;12.238;2023-04-25T06:39:51;4.22;;;2.88;;
38787;SDS011;24536;45.488;12.238;2023-04-25T06:42:17;5.10;;;2.63;;
38787;SDS011;24536;45.488;12.238;2023-04-25T06:44:43;2.72;;;2.20;;
38787;SDS011;24536;45.488;12.238;2023-04-25T06:47:09;3.47;;;2.05;;
38787;SDS011;24536;45.488;12.238;2023-04-25T06:49:34;3.95;;;2.28;;
38787;SDS011;24536;45.488;12.238;2023-04-25T06:52:00;1.65;;;1.38;;
38787;SDS011;24536;45.488;12.238;2023-04-25T06:54:34;2.00;;;1.25;;
38787;SDS011;24536;45.488;12.238;2023-04-25T06:57:00;3.10;;;1.95;;
38787;SDS011;24536;45.488;12.238;2023-04-25T06:59:26;2.42;;;1.60;;
38787;SDS011;24536;45.488;12.238;2023-04-25T07:01:52;4.10;;;1.92;;
38787;SDS011;24536;45.488;12.238;2023-04-25T07:04:17;3.35;;;1.50;;
38787;SDS011;24536;45.488;12.238;2023-04-25T07:06:43;3.28;;;1.75;;
38787;SDS011;24536;45.488;12.238;2023-04-25T07:09:09;5.22;;;1.83;;
38787;SDS011;24536;45.488;12.238;2023-04-25T07:11:36;4.65;;;2.03;;
38787;SDS011;24536;45.488;12.238;2023-04-25T07:14:02;4.38;;;1.70;;
38787;SDS011;24536;45.488;12.238;2023-04-25T07:16:28;3.28;;;1.95;;
38787;SDS011;24536;45.488;12.238;2023-04-25T07:18:54;3.75;;;2.55;;
38787;SDS011;24536;45.488;12.238;2023-04-25T07:21:20;4.30;;;2.05;;
38787;SDS011;24536;45.488;12.238;2023-04-25T07:23:46;4.28;;;2.25;;
38787;SDS011;24536;45.488;12.238;2023-04-25T07:26:11;3.75;;;2.47;;
38787;SDS011;24536;45.488;12.238;2023-04-25T07:28:38;1.85;;;1.73;;
38787;SDS011;24536;45.488;12.238;2023-04-25T07:31:03;2.85;;;2.13;;
38787;SDS011;24536;45.488;12.238;2023-04-25T07:33:30;3.92;;;2.15;;
38787;SDS011;24536;45.488;12.238;2023-04-25T07:35:56;3.40;;;2.40;;
38787;SDS011;24536;45.488;12.238;2023-04-25T07:38:22;5.13;;;3.17;;
38787;SDS011;24536;45.488;12.238;2023-04-25T07:40:48;3.47;;;2.70;;
38787;SDS011;24536;45.488;12.238;2023-04-25T07:43:14;4.20;;;3.33;;
38787;SDS011;24536;45.488;12.238;2023-04-25T07:45:45;5.85;;;2.90;;
38787;SDS011;24536;45.488;12.238;2023-04-25T07:48:13;2.72;;;2.38;;
38787;SDS011;24536;45.488;12.238;2023-04-25T07:50:43;4.50;;;2.75;;
38787;SDS011;24536;45.488;12.238;2023-04-25T07:53:09;4.70;;;3.28;;
38787;SDS011;24536;45.488;12.238;2023-04-25T07:55:35;4.25;;;3.15;;
38787;SDS011;24536;45.488;12.238;2023-04-25T07:58:01;4.05;;;3.20;;
38787;SDS011;24536;45.488;12.238;2023-04-25T08:00:28;3.60;;;3.30;;
38787;SDS011;24536;45.488;12.238;2023-04-25T08:02:54;4.40;;;3.50;;
38787;SDS011;24536;45.488;12.238;2023-04-25T08:05:20;4.45;;;3.53;;
38787;SDS011;24536;45.488;12.238;2023-04-25T08:07:46;3.97;;;3.42;;
38787;SDS011;24536;45.488;12.238;2023-04-25T08:10:11;3.85;;;3.45;;
38787;SDS011;24536;45.488;12.238;2023-04-25T08:12:37;5.95;;;3.70;;
38787;SDS011;24536;45.488;12.238;2023-04-25T08:15:03;4.43;;;3.22;;
38787;SDS011;24536;45.488;12.238;2023-04-25T08:17:30;4.55;;;3.28;;
38787;SDS011;24536;45.488;12.238;2023-04-25T08:19:56;3.13;;;2.65;;
38787;SDS011;24536;45.488;12.238;2023-04-25T08:22:22;3.72;;;2.55;;
38787;SDS011;24536;45.488;12.238;2023-04-25T08:24:47;4.55;;;2.55;;
38787;SDS011;24536;45.488;12.238;2023-04-25T08:27:13;3.42;;;2.65;;
38787;SDS011;24536;45.488;12.238;2023-04-25T08:29:39;3.20;;;2.22;;
38787;SDS011;24536;45.488;12.238;2023-04-25T08:32:05;3.47;;;2.78;;
38787;SDS011;24536;45.488;12.238;2023-04-25T08:34:30;3.42;;;2.63;;
38787;SDS011;24536;45.488;12.238;2023-04-25T08:36:56;3.85;;;2.50;;
38787;SDS011;24536;45.488;12.238;2023-04-25T08:39:21;5.25;;;3.15;;
38787;SDS011;24536;45.488;12.238;2023-04-25T08:41:47;3.92;;;3.30;;
38787;SDS011;24536;45.488;12.238;2023-04-25T08:44:13;4.82;;;3.42;;
38787;SDS011;24536;45.488;12.238;2023-04-25T08:46:41;4.00;;;3.13;;
38787;SDS011;24536;45.488;12.238;2023-04-25T08:49:07;4.53;;;3.55;;
38787;SDS011;24536;45.488;12.238;2023-04-25T08:51:39;4.05;;;2.83;;
38787;SDS011;24536;45.488;12.238;2023-04-25T08:54:12;3.50;;;3.17;;
38787;SDS011;24536;45.488;12.238;2023-04-25T08:56:39;4.18;;;3.45;;
38787;SDS011;24536;45.488;12.238;2023-04-25T08:59:08;4.63;;;3.58;;
38787;SDS011;24536;45.488;12.238;2023-04-25T09:01:34;4.07;;;3.35;;
38787;SDS011;24536;45.488;12.238;2023-04-25T09:04:01;3.47;;;3.17;;
38787;SDS011;24536;45.488;12.238;2023-04-25T09:06:28;4.30;;;3.22;;
38787;SDS011;24536;45.488;12.238;2023-04-25T09:08:54;5.18;;;3.50;;
38787;SDS011;24536;45.488;12.238;2023-04-25T09:11:19;6.03;;;3.65;;
38787;SDS011;24536;45.488;12.238;2023-04-25T09:13:45;4.07;;;3.60;;
38787;SDS011;24536;45.488;12.238;2023-04-25T09:16:11;6.85;;;3.75;;
38787;SDS011;24536;45.488;12.238;2023-04-25T09:18:36;4.18;;;3.47;;
38787;SDS011;24536;45.488;12.238;2023-04-25T09:21:11;4.68;;;3.78;;
38787;SDS011;24536;45.488;12.238;2023-04-25T09:23:49;9.32;;;3.92;;
38787;SDS011;24536;45.488;12.238;2023-04-25T09:26:17;5.50;;;4.00;;
38787;SDS011;24536;45.488;12.238;2023-04-25T09:28:44;5.05;;;3.70;;
38787;SDS011;24536;45.488;12.238;2023-04-25T09:31:10;5.85;;;4.07;;
38787;SDS011;24536;45.488;12.238;2023-04-25T09:33:36;5.00;;;3.78;;
38787;SDS011;24536;45.488;12.238;2023-04-25T09:36:03;4.30;;;3.47;;
38787;SDS011;24536;45.488;12.238;2023-04-25T09:38:42;4.10;;;3.13;;
38787;SDS011;24536;45.488;12.238;2023-04-25T09:41:10;4.75;;;2.63;;
38787;SDS011;24536;45.488;12.238;2023-04-25T09:43:37;2.88;;;2.28;;
38787;SDS011;24536;45.488;12.238;2023-04-25T09:46:04;2.40;;;1.75;;
38787;SDS011;24536;45.488;12.238;2023-04-25T09:48:34;3.38;;;1.73;;
38787;SDS011;24536;45.488;12.238;2023-04-25T09:51:12;1.95;;;1.48;;
38787;SDS011;24536;45.488;12.238;2023-04-25T09:53:42;2.20;;;1.33;;
38787;SDS011;24536;45.488;12.238;2023-04-25T09:56:11;2.90;;;0.98;;
38787;SDS011;24536;45.488;12.238;2023-04-25T09:58:38;1.23;;;1.13;;
38787;SDS011;24536;45.488;12.238;2023-04-25T10:01:05;1.58;;;0.70;;
38787;SDS011;24536;45.488;12.238;2023-04-25T10:03:34;1.48;;;0.93;;
38787;SDS011;24536;45.488;12.238;2023-04-25T10:06:03;3.28;;;0.82;;
38787;SDS011;24536;45.488;12.238;2023-04-25T10:11:00;1.75;;;0.60;;
38787;SDS011;24536;45.488;12.238;2023-04-25T10:13:28;4.43;;;0.80;;
38787;SDS011;24536;45.488;12.238;2023-04-25T10:15:58;3.78;;;0.63;;
38787;SDS011;24536;45.488;12.238;2023-04-25T10:18:27;2.05;;;0.50;;
38787;SDS011;24536;45.488;12.238;2023-04-25T10:20:54;2.58;;;0.50;;
38787;SDS011;24536;45.488;12.238;2023-04-25T10:23:21;1.25;;;0.38;;
38787;SDS011;24536;45.488;12.238;2023-04-25T10:25:49;2.17;;;0.63;;
38787;SDS011;24536;45.488;12.238;2023-04-25T10:28:18;4.10;;;0.65;;
38787;SDS011;24536;45.488;12.238;2023-04-25T10:30:57;4.35;;;0.70;;
38787;SDS011;24536;45.488;12.238;2023-04-25T10:33:36;0.35;;;0.30;;
38787;SDS011;24536;45.488;12.238;2023-04-25T10:38:35;1.80;;;0.52;;
38787;SDS011;24536;45.488;12.238;2023-04-25T10:41:03;1.25;;;0.55;;
38787;SDS011;24536;45.488;12.238;2023-04-25T10:45:56;2.08;;;0.68;;
38787;SDS011;24536;45.488;12.238;2023-04-25T10:48:44;4.28;;;0.65;;
38787;SDS011;24536;45.488;12.238;2023-04-25T10:53:43;2.33;;;0.63;;
38787;SDS011;24536;45.488;12.238;2023-04-25T10:56:11;0.73;;;0.38;;
38787;SDS011;24536;45.488;12.238;2023-04-25T10:58:44;1.85;;;0.40;;
38787;SDS011;24536;45.488;12.238;2023-04-25T11:01:11;2.08;;;0.45;;
38787;SDS011;24536;45.488;12.238;2023-04-25T11:03:49;3.35;;;0.60;;
38787;SDS011;24536;45.488;12.238;2023-04-25T11:06:23;2.10;;;0.43;;
38787;SDS011;24536;45.488;12.238;2023-04-25T11:09:11;1.48;;;0.30;;
38787;SDS011;24536;45.488;12.238;2023-04-25T11:11:38;0.50;;;0.32;;
38787;SDS011;24536;45.488;12.238;2023-04-25T11:14:04;1.67;;;0.45;;
38787;SDS011;24536;45.488;12.238;2023-04-25T11:16:29;0.82;;;0.30;;
38787;SDS011;24536;45.488;12.238;2023-04-25T11:18:57;3.08;;;0.30;;
38787;SDS011;24536;45.488;12.238;2023-04-25T11:21:25;1.73;;;0.30;;
38787;SDS011;24536;45.488;12.238;2023-04-25T11:26:21;0.70;;;0.40;;
38787;SDS011;24536;45.488;12.238;2023-04-25T11:28:48;2.58;;;0.73;;
38787;SDS011;24536;45.488;12.238;2023-04-25T11:31:14;1.02;;;0.50;;
38787;SDS011;24536;45.488;12.238;2023-04-25T11:33:40;1.40;;;0.60;;
38787;SDS011;24536;45.488;12.238;2023-04-25T11:36:07;1.63;;;0.38;;
38787;SDS011;24536;45.488;12.238;2023-04-25T11:38:33;0.60;;;0.28;;
38787;SDS011;24536;45.488;12.238;2023-04-25T11:40:59;0.68;;;0.40;;
38787;SDS011;24536;45.488;12.238;2023-04-25T11:43:25;1.30;;;0.50;;
38787;SDS011;24536;45.488;12.238;2023-04-25T11:45:51;1.45;;;0.70;;
38787;SDS011;24536;45.488;12.238;2023-04-25T11:48:20;3.08;;;0.75;;
38787;SDS011;24536;45.488;12.238;2023-04-25T11:50:46;0.32;;;0.30;;
38787;SDS011;24536;45.488;12.238;2023-04-25T11:53:11;1.45;;;0.60;;
38787;SDS011;24536;45.488;12.238;2023-04-25T11:55:37;1.30;;;0.50;;
38787;SDS011;24536;45.488;12.238;2023-04-25T11:58:04;4.45;;;0.70;;
38787;SDS011;24536;45.488;12.238;2023-04-25T12:00:31;9.43;;;0.40;;
38787;SDS011;24536;45.488;12.238;2023-04-25T12:02:57;1.15;;;0.43;;
38787;SDS011;24536;45.488;12.238;2023-04-25T12:05:24;1.17;;;0.45;;
38787;SDS011;24536;45.488;12.238;2023-04-25T12:07:53;2.78;;;0.35;;
38787;SDS011;24536;45.488;12.238;2023-04-25T12:10:19;1.52;;;0.50;;
38787;SDS011;24536;45.488;12.238;2023-04-25T12:12:46;1.27;;;0.40;;
38787;SDS011;24536;45.488;12.238;2023-04-25T12:15:13;0.75;;;0.38;;
38787;SDS011;24536;45.488;12.238;2023-04-25T12:17:45;1.50;;;0.30;;
38787;SDS011;24536;45.488;12.238;2023-04-25T12:20:13;1.15;;;0.40;;
38787;SDS011;24536;45.488;12.238;2023-04-25T12:22:41;1.08;;;0.22;;
38787;SDS011;24536;45.488;12.238;2023-04-25T12:25:12;0.90;;;0.30;;
38787;SDS011;24536;45.488;12.238;2023-04-25T12:27:38;0.77;;;0.30;;
38787;SDS011;24536;45.488;12.238;2023-04-25T12:30:09;2.55;;;0.38;;
38787;SDS011;24536;45.488;12.238;2023-04-25T12:32:36;1.48;;;0.40;;
38787;SDS011;24536;45.488;12.238;2023-04-25T12:35:03;1.80;;;0.47;;
38787;SDS011;24536;45.488;12.238;2023-04-25T12:37:29;0.75;;;0.50;;
38787;SDS011;24536;45.488;12.238;2023-04-25T12:39:55;0.50;;;0.30;;
38787;SDS011;24536;45.488;12.238;2023-04-25T12:42:21;1.80;;;0.50;;
38787;SDS011;24536;45.488;12.238;2023-04-25T12:44:47;1.17;;;0.40;;
38787;SDS011;24536;45.488;12.238;2023-04-25T12:47:13;2.00;;;0.50;;
38787;SDS011;24536;45.488;12.238;2023-04-25T12:49:39;0.30;;;0.30;;
38787;SDS011;24536;45.488;12.238;2023-04-25T12:52:05;1.85;;;0.47;;
38787;SDS011;24536;45.488;12.238;2023-04-25T12:54:30;2.42;;;0.47;;
38787;SDS011;24536;45.488;12.238;2023-04-25T12:56:56;0.80;;;0.30;;
38787;SDS011;24536;45.488;12.238;2023-04-25T12:59:22;0.45;;;0.30;;
38787;SDS011;24536;45.488;12.238;2023-04-25T13:01:48;3.08;;;0.40;;
38787;SDS011;24536;45.488;12.238;2023-04-25T13:04:14;0.22;;;0.22;;
38787;SDS011;24536;45.488;12.238;2023-04-25T13:06:40;0.57;;;0.40;;
38787;SDS011;24536;45.488;12.238;2023-04-25T13:09:06;0.80;;;0.30;;
38787;SDS011;24536;45.488;12.238;2023-04-25T13:11:32;1.95;;;0.40;;
38787;SDS011;24536;45.488;12.238;2023-04-25T13:13:58;0.98;;;0.43;;
38787;SDS011;24536;45.488;12.238;2023-04-25T13:16:23;2.75;;;0.52;;
38787;SDS011;24536;45.488;12.238;2023-04-25T13:18:49;1.33;;;0.60;;
38787;SDS011;24536;45.488;12.238;2023-04-25T13:21:15;0.80;;;0.40;;
38787;SDS011;24536;45.488;12.238;2023-04-25T13:23:40;1.30;;;0.32;;
38787;SDS011;24536;45.488;12.238;2023-04-25T13:26:07;0.43;;;0.30;;
38787;SDS011;24536;45.488;12.238;2023-04-25T13:28:33;0.73;;;0.28;;
38787;SDS011;24536;45.488;12.238;2023-04-25T13:30:59;0.43;;;0.20;;
38787;SDS011;24536;45.488;12.238;2023-04-25T13:33:25;1.02;;;0.20;;
38787;SDS011;24536;45.488;12.238;2023-04-25T13:35:50;0.50;;;0.40;;
38787;SDS011;24536;45.488;12.238;2023-04-25T13:38:21;1.65;;;0.35;;
38787;SDS011;24536;45.488;12.238;2023-04-25T13:40:48;1.13;;;0.50;;
38787;SDS011;24536;45.488;12.238;2023-04-25T13:43:15;0.50;;;0.40;;
38787;SDS011;24536;45.488;12.238;2023-04-25T13:45:41;1.98;;;0.55;;
38787;SDS011;24536;45.488;12.238;2023-04-25T13:48:07;0.50;;;0.40;;
38787;SDS011;24536;45.488;12.238;2023-04-25T13:50:32;0.77;;;0.40;;
38787;SDS011;24536;45.488;12.238;2023-04-25T13:52:58;0.63;;;0.40;;
38787;SDS011;24536;45.488;12.238;2023-04-25T13:55:24;0.45;;;0.40;;
38787;SDS011;24536;45.488;12.238;2023-04-25T13:57:50;3.08;;;0.40;;
38787;SDS011;24536;45.488;12.238;2023-04-25T14:00:16;0.88;;;0.55;;
38787;SDS011;24536;45.488;12.238;2023-04-25T14:02:42;1.27;;;0.70;;
38787;SDS011;24536;45.488;12.238;2023-04-25T14:05:07;0.30;;;0.30;;
38787;SDS011;24536;45.488;12.238;2023-04-25T14:07:34;0.65;;;0.47;;
38787;SDS011;24536;45.488;12.238;2023-04-25T14:10:01;0.50;;;0.30;;
38787;SDS011;24536;45.488;12.238;2023-04-25T14:12:27;1.38;;;0.52;;
38787;SDS011;24536;45.488;12.238;2023-04-25T14:14:52;2.45;;;0.52;;
38787;SDS011;24536;45.488;12.238;2023-04-25T14:17:18;1.15;;;0.50;;
38787;SDS011;24536;45.488;12.238;2023-04-25T14:19:44;1.08;;;0.60;;
38787;SDS011;24536;45.488;12.238;2023-04-25T14:22:12;2.33;;;0.40;;
38787;SDS011;24536;45.488;12.238;2023-04-25T14:24:38;1.55;;;0.60;;
38787;SDS011;24536;45.488;12.238;2023-04-25T14:27:04;0.63;;;0.40;;
38787;SDS011;24536;45.488;12.238;2023-04-25T14:29:30;0.77;;;0.28;;
38787;SDS011;24536;45.488;12.238;2023-04-25T14:31:56;1.00;;;0.52;;
38787;SDS011;24536;45.488;12.238;2023-04-25T14:34:22;0.55;;;0.40;;
38787;SDS011;24536;45.488;12.238;2023-04-25T14:36:48;0.43;;;0.43;;
38787;SDS011;24536;45.488;12.238;2023-04-25T14:39:14;0.82;;;0.57;;
38787;SDS011;24536;45.488;12.238;2023-04-25T14:41:41;0.50;;;0.40;;
38787;SDS011;24536;45.488;12.238;2023-04-25T14:44:07;1.42;;;0.35;;